Time;durP1;ratioP1;P1;durP2;ratioP2;P2;SDS_P1;SDS_P2;PMS_P1;PMS_P2;Temp;Humidity;BMP_temperature;BMP_pressure;BME280_temperature;BME280_humidity;BME280_pressure;Samples;Min_cycle;Max_cycle;Signal;HPM_P1;HPM_P2
2024/04/18 00:00:43;;;;;;;63.95;30.40;;;1.00;99.90;;;;;;5485509;26;20017;-71
2024/04/18 00:03:08;;;;;;;57.63;27.83;;;0.90;99.90;;;;;;5485653;26;20067;-71
2024/04/18 00:05:34;;;;;;;57.35;28.42;;;1.00;99.90;;;;;;5490480;26;20421;-71
2024/04/18 00:08:00;;;;;;;78.32;30.02;;;0.90;99.90;;;;;;5490699;26;20010;-72
2024/04/18 00:10:25;;;;;;;64.70;30.13;;;0.90;99.90;;;;;;5466796;26;20005;-72
2024/04/18 00:12:51;;;;;;;68.28;32.13;;;1.00;99.90;;;;;;5489957;26;20006;-72
2024/04/18 00:15:18;;;;;;;63.70;28.70;;;1.00;99.90;;;;;;5458334;26;20002;-72
2024/04/18 00:17:43;;;;;;;65.07;28.92;;;1.00;99.90;;;;;;5489324;26;20316;-72
2024/04/18 00:20:09;;;;;;;125.78;34.58;;;1.00;99.90;;;;;;5458228;26;20010;-72
2024/04/18 00:22:34;;;;;;;64.57;28.52;;;1.00;99.90;;;;;;5479722;26;20005;-72
2024/04/18 00:25:00;;;;;;;59.13;28.25;;;1.00;99.90;;;;;;5490192;26;20070;-72
2024/04/18 00:27:27;;;;;;;117.25;33.85;;;1.00;99.90;;;;;;5490814;26;20343;-72
2024/04/18 00:29:53;;;;;;;57.08;26.30;;;1.00;99.90;;;;;;5480719;26;20044;-72
2024/04/18 00:32:18;;;;;;;75.65;31.13;;;1.00;99.90;;;;;;5423024;26;20414;-72
2024/04/18 00:34:44;;;;;;;57.33;27.48;;;1.00;99.90;;;;;;5464271;26;20339;-72
2024/04/18 00:37:10;;;;;;;57.33;26.17;;;0.90;99.90;;;;;;5491161;26;20343;-72
2024/04/18 00:39:35;;;;;;;56.83;25.70;;;1.00;99.90;;;;;;5488791;26;20448;-72
2024/04/18 00:42:01;;;;;;;68.10;25.65;;;1.00;99.90;;;;;;5488392;26;20034;-72
2024/04/18 00:44:27;;;;;;;61.13;25.20;;;1.00;99.90;;;;;;5489120;26;20006;-73
2024/04/18 00:46:55;;;;;;;77.38;30.10;;;1.00;99.90;;;;;;5490655;26;20024;-72
2024/04/18 00:49:21;;;;;;;76.10;28.13;;;1.00;99.90;;;;;;5489484;26;19994;-72
2024/04/18 00:51:47;;;;;;;55.88;22.83;;;1.00;99.90;;;;;;5489203;26;20071;-72
2024/04/18 00:54:13;;;;;;;63.40;27.65;;;1.00;99.90;;;;;;5474162;26;19998;-72
2024/04/18 00:56:40;;;;;;;66.22;24.38;;;1.00;99.90;;;;;;5490168;26;20466;-72
2024/04/18 00:59:06;;;;;;;60.92;28.88;;;0.90;99.90;;;;;;5489360;26;20009;-72
2024/04/18 01:01:32;;;;;;;62.95;28.73;;;1.00;99.90;;;;;;5489880;26;19994;-72
2024/04/18 01:03:58;;;;;;;109.63;33.90;;;1.00;99.90;;;;;;5489520;26;20351;-72
2024/04/18 01:06:24;;;;;;;144.38;40.97;;;0.90;99.90;;;;;;5490552;26;19998;-72
2024/04/18 01:08:50;;;;;;;175.27;64.43;;;0.90;99.90;;;;;;5478401;26;20007;-72
2024/04/18 01:11:16;;;;;;;216.32;63.88;;;1.00;99.90;;;;;;5443047;26;20013;-72
2024/04/18 01:13:42;;;;;;;159.70;61.72;;;1.00;99.90;;;;;;5465219;26;20030;-71
2024/04/18 01:16:08;;;;;;;63.50;29.65;;;1.00;99.90;;;;;;5457731;26;19998;-72
2024/04/18 01:18:34;;;;;;;55.90;25.42;;;1.00;99.90;;;;;;5489507;26;20002;-73
2024/04/18 01:21:00;;;;;;;57.45;24.65;;;1.00;99.90;;;;;;5448374;26;20003;-72
2024/04/18 01:23:27;;;;;;;59.28;26.25;;;1.00;99.90;;;;;;5478714;26;20006;-72
2024/04/18 01:25:53;;;;;;;57.75;26.10;;;1.00;99.90;;;;;;5444882;26;20408;-72
2024/04/18 01:28:19;;;;;;;53.60;25.63;;;1.00;99.90;;;;;;5458212;26;20005;-71
2024/04/18 01:30:45;;;;;;;54.97;25.67;;;1.00;99.90;;;;;;5489312;26;20006;-71
2024/04/18 01:33:10;;;;;;;173.10;35.53;;;1.00;99.90;;;;;;5479403;26;20007;-71
2024/04/18 01:35:36;;;;;;;108.28;27.92;;;1.00;99.90;;;;;;5477729;26;20003;-71
2024/04/18 01:38:02;;;;;;;72.20;28.13;;;1.00;99.90;;;;;;5456648;26;20084;-73
2024/04/18 01:40:28;;;;;;;348.35;58.08;;;1.00;99.90;;;;;;5458135;26;20408;-71
2024/04/18 01:42:53;;;;;;;55.20;24.27;;;0.90;99.90;;;;;;5489472;26;19998;-71
2024/04/18 01:45:19;;;;;;;49.05;22.90;;;1.00;99.90;;;;;;5489457;26;20010;-71
2024/04/18 01:47:45;;;;;;;44.45;24.50;;;1.00;99.90;;;;;;5483641;26;20339;-71
2024/04/18 01:50:10;;;;;;;84.60;29.00;;;1.00;99.90;;;;;;5489171;26;20021;-71
2024/04/18 01:52:37;;;;;;;69.22;22.88;;;1.00;99.90;;;;;;5457263;26;19998;-72
2024/04/18 01:55:03;;;;;;;57.92;23.63;;;1.00;99.90;;;;;;5489949;26;19994;-72
2024/04/18 01:57:29;;;;;;;51.80;23.42;;;1.00;99.90;;;;;;5466412;26;20078;-72
2024/04/18 01:59:55;;;;;;;51.03;23.73;;;1.10;99.90;;;;;;5489198;26;20139;-73
2024/04/18 02:02:20;;;;;;;69.57;26.48;;;1.10;99.90;;;;;;5489167;26;20037;-72
2024/04/18 02:04:46;;;;;;;55.25;24.85;;;1.10;99.90;;;;;;5471569;26;19994;-71
2024/04/18 02:07:11;;;;;;;56.75;24.52;;;1.10;99.90;;;;;;5490001;26;19998;-71
2024/04/18 02:09:37;;;;;;;48.22;23.73;;;1.10;99.90;;;;;;5466461;26;20022;-72
2024/04/18 02:12:03;;;;;;;47.17;23.02;;;1.20;99.90;;;;;;5487571;26;20568;-72
2024/04/18 02:14:28;;;;;;;55.00;23.58;;;1.20;99.90;;;;;;5488718;26;20014;-71
2024/04/18 02:16:54;;;;;;;61.20;25.13;;;1.20;99.90;;;;;;5488929;26;20006;-71
2024/04/18 02:19:20;;;;;;;53.60;24.15;;;1.20;99.90;;;;;;5469052;26;20010;-71
2024/04/18 02:21:46;;;;;;;65.28;26.33;;;1.20;99.90;;;;;;5455695;26;20006;-72
2024/04/18 02:24:11;;;;;;;55.30;24.05;;;1.10;99.90;;;;;;5488950;26;20012;-71
2024/04/18 02:26:37;;;;;;;88.60;26.67;;;1.20;99.90;;;;;;5488399;26;20018;-71
2024/04/18 02:29:02;;;;;;;76.40;24.52;;;1.10;99.90;;;;;;5488742;26;20074;-71
2024/04/18 02:31:28;;;;;;;99.57;28.15;;;1.10;99.90;;;;;;5488716;26;19998;-71
2024/04/18 02:33:54;;;;;;;59.13;24.05;;;1.10;99.90;;;;;;5489221;26;20360;-71
2024/04/18 02:36:20;;;;;;;54.75;22.50;;;1.10;99.90;;;;;;5488314;26;20074;-72
2024/04/18 02:38:46;;;;;;;60.28;22.92;;;1.10;99.90;;;;;;5488981;26;20020;-72
2024/04/18 02:41:11;;;;;;;75.47;23.95;;;1.10;99.90;;;;;;5488356;26;20327;-72
2024/04/18 02:43:37;;;;;;;93.05;29.13;;;1.10;99.90;;;;;;5478705;26;20017;-72
2024/04/18 02:46:03;;;;;;;53.10;22.90;;;1.10;99.90;;;;;;5488831;26;19998;-72
2024/04/18 02:48:28;;;;;;;43.63;22.90;;;1.10;99.90;;;;;;5467896;26;20006;-71
2024/04/18 02:50:54;;;;;;;83.78;29.33;;;1.20;99.90;;;;;;5486487;26;20010;-74
2024/04/18 02:53:20;;;;;;;63.20;24.70;;;1.10;99.90;;;;;;5480593;26;20013;-71
2024/04/18 02:55:46;;;;;;;72.55;25.00;;;1.10;99.90;;;;;;5486340;26;20006;-70
2024/04/18 02:58:11;;;;;;;59.22;27.10;;;1.20;99.90;;;;;;5474489;26;19998;-72
2024/04/18 03:00:37;;;;;;;71.07;27.25;;;1.10;99.90;;;;;;5474142;26;20000;-71
2024/04/18 03:03:03;;;;;;;54.97;27.30;;;1.10;99.90;;;;;;5485962;26;20025;-70
2024/04/18 03:05:29;;;;;;;65.72;31.13;;;1.20;99.90;;;;;;5471077;26;20421;-71
2024/04/18 03:07:56;;;;;;;67.68;26.35;;;1.20;99.90;;;;;;5480788;26;20036;-72
2024/04/18 03:10:21;;;;;;;80.82;27.77;;;1.20;99.90;;;;;;5489126;26;19994;-72
2024/04/18 03:12:47;;;;;;;71.95;26.00;;;1.20;99.90;;;;;;5469224;26;20397;-72
2024/04/18 03:15:13;;;;;;;59.88;25.50;;;1.20;99.90;;;;;;5485818;26;20002;-72
2024/04/18 03:17:38;;;;;;;63.38;26.58;;;1.10;99.90;;;;;;5488520;26;20006;-72
2024/04/18 03:20:04;;;;;;;73.60;30.15;;;1.10;99.90;;;;;;5487702;26;20343;-72
2024/04/18 03:22:31;;;;;;;65.43;26.48;;;1.10;99.90;;;;;;5488259;26;20004;-72
2024/04/18 03:24:57;;;;;;;60.33;28.05;;;1.10;99.90;;;;;;5485416;26;20009;-72
2024/04/18 03:27:23;;;;;;;78.43;28.33;;;1.10;99.90;;;;;;5467478;26;20002;-71
2024/04/18 03:29:49;;;;;;;72.00;29.85;;;1.10;99.90;;;;;;5478768;26;20327;-72
2024/04/18 03:32:15;;;;;;;61.10;25.45;;;1.10;99.90;;;;;;5474551;26;19998;-73
2024/04/18 03:34:40;;;;;;;66.72;26.50;;;1.10;99.90;;;;;;5461338;26;19991;-72
2024/04/18 03:37:06;;;;;;;55.20;25.20;;;1.10;99.90;;;;;;5475054;26;20247;-72
2024/04/18 03:39:32;;;;;;;59.72;25.45;;;1.10;99.90;;;;;;5479175;26;20002;-72
2024/04/18 03:41:58;;;;;;;51.30;23.83;;;1.10;99.90;;;;;;5473769;26;20070;-71
2024/04/18 03:44:24;;;;;;;56.00;27.13;;;1.10;99.90;;;;;;5490933;26;20167;-71
2024/04/18 03:46:49;;;;;;;59.60;25.00;;;1.10;99.90;;;;;;5487921;26;20014;-72
2024/04/18 03:49:15;;;;;;;58.08;26.83;;;1.00;99.90;;;;;;5490248;26;20009;-73
2024/04/18 03:51:40;;;;;;;60.65;24.88;;;1.10;99.90;;;;;;5486127;26;20002;-72
2024/04/18 03:54:06;;;;;;;59.83;25.83;;;1.10;99.90;;;;;;5484859;26;20005;-71
2024/04/18 03:56:32;;;;;;;50.38;23.67;;;1.10;99.90;;;;;;5482840;26;20017;-72
2024/04/18 03:58:57;;;;;;;63.95;26.38;;;1.10;99.90;;;;;;5482463;26;19999;-71
2024/04/18 04:01:28;;;;;;;94.40;30.65;;;1.10;99.90;;;;;;5488792;26;20008;-72
2024/04/18 04:03:54;;;;;;;95.38;31.27;;;1.10;99.90;;;;;;5480910;26;20017;-72
2024/04/18 04:06:20;;;;;;;60.72;24.25;;;1.10;99.90;;;;;;5488648;26;19998;-72
2024/04/18 04:08:46;;;;;;;91.90;30.65;;;1.20;99.90;;;;;;5491109;26;20002;-72
2024/04/18 04:11:13;;;;;;;69.35;29.15;;;1.20;99.90;;;;;;5490436;26;20450;-71
2024/04/18 04:13:39;;;;;;;82.65;28.50;;;1.20;99.90;;;;;;5490012;26;20012;-71
2024/04/18 04:16:05;;;;;;;51.58;24.55;;;1.20;99.90;;;;;;5463870;26;20354;-72
2024/04/18 04:18:31;;;;;;;64.03;25.42;;;1.30;99.90;;;;;;5490700;26;20006;-71
2024/04/18 04:20:57;;;;;;;67.22;27.05;;;1.30;99.90;;;;;;5477875;26;20073;-71
2024/04/18 04:23:23;;;;;;;59.58;26.45;;;1.40;99.90;;;;;;5489019;26;20373;-72
2024/04/18 04:25:48;;;;;;;61.28;26.60;;;1.40;99.90;;;;;;5483709;26;20007;-72
2024/04/18 04:28:14;;;;;;;57.35;25.60;;;1.40;99.90;;;;;;5474969;26;19994;-72
2024/04/18 04:30:39;;;;;;;55.92;24.38;;;1.40;99.90;;;;;;5476994;26;20328;-72
2024/04/18 04:33:05;;;;;;;59.95;25.05;;;1.50;99.90;;;;;;5483210;26;20017;-72
2024/04/18 04:35:30;;;;;;;63.08;27.08;;;1.60;99.90;;;;;;5489691;26;20013;-72
2024/04/18 04:37:58;;;;;;;111.82;34.05;;;1.60;99.90;;;;;;5488421;26;20088;-72
2024/04/18 04:40:23;;;;;;;64.63;28.83;;;1.60;99.90;;;;;;5487354;26;20006;-71
2024/04/18 04:42:49;;;;;;;54.65;25.00;;;1.60;99.90;;;;;;5476725;26;20002;-71
2024/04/18 04:45:15;;;;;;;60.30;25.30;;;1.60;99.90;;;;;;5484403;26;20017;-71
2024/04/18 04:47:40;;;;;;;65.40;24.75;;;1.60;99.90;;;;;;5458840;26;20003;-71
2024/04/18 04:50:06;;;;;;;163.75;31.20;;;1.70;99.90;;;;;;5476700;26;20134;-72
2024/04/18 04:52:32;;;;;;;181.55;63.35;;;1.70;99.90;;;;;;5483333;26;20332;-72
2024/04/18 04:54:58;;;;;;;270.65;60.65;;;1.70;99.90;;;;;;5489378;26;19995;-72
2024/04/18 04:57:23;;;;;;;64.72;27.23;;;1.80;99.90;;;;;;5489355;26;20066;-72
2024/04/18 04:59:49;;;;;;;66.05;27.73;;;1.90;99.90;;;;;;5455480;26;20002;-71
2024/04/18 05:02:14;;;;;;;91.43;32.95;;;1.90;99.90;;;;;;5486409;26;20010;-71
2024/04/18 05:04:40;;;;;;;86.80;28.92;;;2.00;99.90;;;;;;5480864;26;19995;-73
2024/04/18 05:07:06;;;;;;;80.00;27.73;;;2.00;99.90;;;;;;5473473;26;19998;-73
2024/04/18 05:09:31;;;;;;;93.13;27.92;;;2.10;99.90;;;;;;5489590;26;20444;-72
2024/04/18 05:11:57;;;;;;;81.30;27.63;;;2.00;99.90;;;;;;5488192;26;20002;-71
2024/04/18 05:14:23;;;;;;;88.30;30.75;;;2.00;99.90;;;;;;5476298;26;20078;-72
2024/04/18 05:16:49;;;;;;;66.60;24.50;;;2.00;99.90;;;;;;5481232;26;20390;-72
2024/04/18 05:19:15;;;;;;;138.02;28.40;;;2.00;99.90;;;;;;5487042;26;20331;-72
2024/04/18 05:21:41;;;;;;;43.50;21.00;;;1.90;99.90;;;;;;5476267;26;20012;-72
2024/04/18 05:24:07;;;;;;;49.70;23.92;;;2.00;99.90;;;;;;5489921;26;20010;-71
2024/04/18 05:26:33;;;;;;;48.47;21.25;;;2.10;99.90;;;;;;5487023;26;20134;-72
2024/04/18 05:31:43;;;;;;;39.55;18.58;;;2.00;99.90;;;;;;5484181;26;20066;-72
2024/04/18 05:34:09;;;;;;;35.88;19.42;;;2.10;99.90;;;;;;5479364;26;20324;-72
2024/04/18 05:36:35;;;;;;;40.92;20.85;;;2.10;99.90;;;;;;5479275;26;20044;-73
2024/04/18 05:39:03;;;;;;;40.65;21.20;;;2.20;99.90;;;;;;5474078;26;19995;-71
2024/04/18 05:41:29;;;;;;;46.17;23.17;;;2.30;99.90;;;;;;5469568;26;20043;-72
2024/04/18 05:43:55;;;;;;;41.85;23.35;;;2.40;99.90;;;;;;5457873;26;20002;-72
2024/04/18 05:46:21;;;;;;;44.60;21.48;;;2.40;99.90;;;;;;5476340;26;20004;-71
2024/04/18 05:48:47;;;;;;;43.42;21.65;;;2.50;99.90;;;;;;5479541;26;20353;-71
2024/04/18 05:51:12;;;;;;;58.38;29.95;;;2.50;99.90;;;;;;5472745;26;20386;-71
2024/04/18 05:53:38;;;;;;;46.83;23.98;;;2.70;99.90;;;;;;5468380;26;20432;-70
2024/04/18 05:56:04;;;;;;;39.58;22.00;;;2.70;99.90;;;;;;5478984;26;20009;-70
2024/04/18 05:58:30;;;;;;;38.65;20.48;;;2.80;99.90;;;;;;5482880;26;19994;-72
2024/04/18 06:00:56;;;;;;;37.78;21.58;;;3.00;99.90;;;;;;5476291;26;20546;-70
2024/04/18 06:03:22;;;;;;;39.28;22.52;;;3.10;99.90;;;;;;5487562;26;20074;-72
2024/04/18 06:05:51;;;;;;;43.28;24.25;;;3.30;99.90;;;;;;5486061;26;20470;-72
2024/04/18 06:08:17;;;;;;;46.50;24.25;;;3.30;99.90;;;;;;5488235;26;20099;-71
2024/04/18 06:10:43;;;;;;;43.78;23.65;;;3.50;99.90;;;;;;5478614;26;20393;-71
2024/04/18 06:13:09;;;;;;;54.05;27.15;;;3.50;99.90;;;;;;5467641;26;19990;-72
2024/04/18 06:15:35;;;;;;;49.75;27.27;;;3.60;99.90;;;;;;5485614;26;20371;-73
2024/04/18 06:18:01;;;;;;;36.95;19.35;;;3.80;99.90;;;;;;5487534;26;20020;-72
2024/04/18 06:20:28;;;;;;;36.15;19.85;;;3.80;99.90;;;;;;5466388;26;20061;-72
2024/04/18 06:22:53;;;;;;;42.08;21.50;;;3.90;99.90;;;;;;5484876;26;20050;-73
2024/04/18 06:25:19;;;;;;;36.80;20.58;;;4.00;99.90;;;;;;5485169;26;20003;-72
2024/04/18 06:27:45;;;;;;;36.17;20.33;;;4.00;99.90;;;;;;5481599;26;20092;-72
2024/04/18 06:30:11;;;;;;;37.33;21.80;;;4.00;99.90;;;;;;5472373;26;20738;-72
2024/04/18 06:32:37;;;;;;;39.22;20.90;;;4.20;99.90;;;;;;5485204;26;20010;-71
2024/04/18 06:35:03;;;;;;;38.17;19.52;;;4.30;99.90;;;;;;5479320;26;20638;-72
2024/04/18 06:37:29;;;;;;;40.67;21.83;;;4.40;99.90;;;;;;5485483;26;19998;-72
2024/04/18 06:39:55;;;;;;;37.25;20.90;;;4.50;99.90;;;;;;5485437;26;19998;-70
2024/04/18 06:42:20;;;;;;;42.45;21.73;;;4.60;99.90;;;;;;5484949;26;19994;-72
2024/04/18 06:44:46;;;;;;;33.58;20.08;;;4.70;99.90;;;;;;5484876;26;20014;-71
2024/04/18 06:47:11;;;;;;;40.15;21.00;;;4.70;99.90;;;;;;5485522;26;20013;-71
2024/04/18 06:49:37;;;;;;;41.53;19.67;;;4.70;99.90;;;;;;5467352;26;20347;-72
2024/04/18 06:52:03;;;;;;;36.60;19.80;;;4.70;99.90;;;;;;5484620;26;20017;-72
2024/04/18 06:54:29;;;;;;;38.42;20.13;;;4.90;99.90;;;;;;5475293;26;19998;-71
2024/04/18 06:56:54;;;;;;;41.22;20.65;;;5.00;99.90;;;;;;5488564;26;20523;-72
2024/04/18 06:59:20;;;;;;;40.75;22.95;;;5.10;99.90;;;;;;5486546;26;20009;-72
2024/04/18 07:01:46;;;;;;;37.67;22.58;;;5.10;99.90;;;;;;5487584;26;19990;-72
2024/04/18 07:04:11;;;;;;;44.65;25.25;;;5.10;99.90;;;;;;5477651;26;19990;-72
2024/04/18 07:06:37;;;;;;;44.63;24.63;;;5.20;99.90;;;;;;5487569;26;20079;-72
2024/04/18 07:09:04;;;;;;;36.03;19.77;;;5.20;99.90;;;;;;5486212;26;19998;-73
2024/04/18 07:11:30;;;;;;;31.98;20.02;;;5.20;99.90;;;;;;5486345;26;20343;-72
2024/04/18 07:13:56;;;;;;;44.25;24.85;;;5.40;99.90;;;;;;5473499;26;20014;-72
2024/04/18 07:16:21;;;;;;;38.55;22.10;;;5.60;99.90;;;;;;5462367;26;19998;-72
2024/04/18 07:18:47;;;;;;;27.95;16.52;;;5.70;99.90;;;;;;5478332;26;20002;-71
2024/04/18 07:21:15;;;;;;;28.98;17.23;;;5.70;99.90;;;;;;5453771;26;20409;-72
2024/04/18 07:26:24;;;;;;;36.35;20.63;;;5.90;99.90;;;;;;5470012;26;20425;-72
2024/04/18 07:28:50;;;;;;;33.25;19.92;;;6.10;99.90;;;;;;5486090;26;20054;-71
2024/04/18 07:31:16;;;;;;;29.52;18.52;;;6.20;99.90;;;;;;5486726;26;20012;-72
2024/04/18 07:33:41;;;;;;;31.00;18.70;;;6.40;99.90;;;;;;5485513;26;20342;-72
2024/04/18 07:36:07;;;;;;;32.22;18.88;;;6.50;99.90;;;;;;5488101;26;20002;-72
2024/04/18 07:38:32;;;;;;;28.88;16.80;;;6.70;99.90;;;;;;5480921;26;20018;-72
2024/04/18 07:40:58;;;;;;;34.60;20.63;;;6.90;99.90;;;;;;5468483;26;20006;-72
2024/04/18 07:43:24;;;;;;;18.88;12.82;;;6.90;99.90;;;;;;5481561;26;20005;-72
2024/04/18 07:45:50;;;;;;;13.05;9.18;;;7.00;99.90;;;;;;5485555;26;20005;-72
2024/04/18 07:48:15;;;;;;;9.38;7.10;;;6.70;99.90;;;;;;5483499;26;20009;-72
2024/04/18 07:50:41;;;;;;;8.18;6.22;;;6.80;99.90;;;;;;5468876;26;20025;-72
2024/04/18 07:53:06;;;;;;;8.77;5.40;;;6.60;95.90;;;;;;5487447;26;20006;-72
2024/04/18 07:55:32;;;;;;;6.72;5.13;;;6.40;88.10;;;;;;5471647;26;19999;-72
2024/04/18 07:57:58;;;;;;;9.07;5.97;;;6.60;88.30;;;;;;5481280;26;19998;-72
2024/04/18 08:00:23;;;;;;;10.10;5.78;;;6.80;86.50;;;;;;5487242;26;20021;-72
2024/04/18 08:02:50;;;;;;;7.25;5.28;;;7.30;89.00;;;;;;5464668;26;21704;-72
2024/04/18 08:05:16;;;;;;;9.15;5.38;;;7.70;87.00;;;;;;5485086;26;20021;-72
2024/04/18 08:07:41;;;;;;;10.27;7.00;;;8.10;82.00;;;;;;5487089;26;20002;-72
2024/04/18 08:10:07;;;;;;;7.13;6.07;;;8.20;78.80;;;;;;5487541;26;20013;-72
2024/04/18 08:12:33;;;;;;;8.02;6.13;;;8.00;77.80;;;;;;5487059;26;20094;-72
2024/04/18 08:14:59;;;;;;;10.43;7.15;;;8.00;78.70;;;;;;5485058;26;20358;-73
2024/04/18 08:17:25;;;;;;;7.88;5.55;;;8.00;81.40;;;;;;5463693;26;20017;-72
2024/04/18 08:19:51;;;;;;;7.97;5.13;;;7.90;81.50;;;;;;5478005;26;20042;-72
2024/04/18 08:22:17;;;;;;;5.45;4.03;;;7.60;75.20;;;;;;5462781;26;20006;-73
2024/04/18 08:24:42;;;;;;;11.27;8.20;;;7.30;72.90;;;;;;5487140;26;20371;-72
2024/04/18 08:27:08;;;;;;;15.30;8.88;;;7.00;76.00;;;;;;5467771;26;20014;-72
2024/04/18 08:29:33;;;;;;;16.58;9.98;;;7.00;77.50;;;;;;5490403;26;20014;-73
2024/04/18 08:31:59;;;;;;;14.98;10.18;;;6.90;81.00;;;;;;5463591;26;20002;-72
2024/04/18 08:34:25;;;;;;;18.52;11.73;;;6.90;85.70;;;;;;5472337;26;20010;-72
2024/04/18 08:36:50;;;;;;;24.45;14.10;;;6.90;88.90;;;;;;5467596;26;20014;-72
2024/04/18 08:39:16;;;;;;;25.83;14.98;;;6.90;88.90;;;;;;5490297;26;20013;-72
2024/04/18 08:41:45;;;;;;;34.25;19.02;;;6.70;93.00;;;;;;5490533;26;20335;-72
2024/04/18 08:44:11;;;;;;;28.38;17.42;;;6.60;98.60;;;;;;5490679;26;20011;-72
2024/04/18 08:46:37;;;;;;;33.22;16.98;;;6.70;99.90;;;;;;5483845;26;20462;-73
2024/04/18 08:49:07;;;;;;;37.28;19.92;;;6.60;99.90;;;;;;5473299;26;20002;-72
2024/04/18 08:51:36;;;;;;;44.88;23.42;;;6.60;99.90;;;;;;5490030;26;20439;-72
2024/04/18 08:54:05;;;;;;;44.13;22.35;;;6.60;99.90;;;;;;5472192;26;20403;-72
2024/04/18 08:56:32;;;;;;;21.77;14.13;;;6.60;99.90;;;;;;5477725;26;20398;-73
2024/04/18 08:58:59;;;;;;;29.90;14.52;;;6.50;99.90;;;;;;5476229;26;20006;-72
2024/04/18 09:01:25;;;;;;;33.05;16.92;;;6.40;91.90;;;;;;5490029;26;20325;-72
2024/04/18 09:03:56;;;;;;;14.35;9.10;;;6.40;90.70;;;;;;5490304;26;20006;-72
2024/04/18 09:06:22;;;;;;;21.52;10.63;;;6.40;89.20;;;;;;5487557;26;20038;-72
2024/04/18 09:08:55;;;;;;;14.93;8.82;;;6.30;85.30;;;;;;5488517;26;20017;-72
2024/04/18 09:11:21;;;;;;;15.43;9.35;;;6.30;84.60;;;;;;5478469;26;20006;-72
2024/04/18 09:13:47;;;;;;;14.43;8.63;;;6.30;85.30;;;;;;5454196;26;25812;-72
2024/04/18 09:16:14;;;;;;;12.43;8.00;;;6.40;85.40;;;;;;5466560;26;19994;-72
2024/04/18 09:18:39;;;;;;;10.10;6.90;;;6.40;85.10;;;;;;5480782;26;20427;-72
2024/04/18 09:21:09;;;;;;;9.15;6.63;;;6.40;80.10;;;;;;5489649;26;20013;-72
2024/04/18 09:23:35;;;;;;;13.05;7.57;;;6.50;80.60;;;;;;5489555;26;20034;-72
2024/04/18 09:26:01;;;;;;;9.18;6.60;;;6.60;80.10;;;;;;5474394;26;20017;-72
2024/04/18 09:28:27;;;;;;;10.57;8.07;;;6.40;78.00;;;;;;5478881;26;20071;-72
2024/04/18 09:30:53;;;;;;;14.65;7.93;;;6.40;79.50;;;;;;5487692;26;20002;-72
2024/04/18 09:33:20;;;;;;;10.73;7.47;;;6.40;78.80;;;;;;5482282;26;20014;-72
2024/04/18 09:35:50;;;;;;;14.15;8.60;;;6.60;79.90;;;;;;5476405;26;20345;-72
2024/04/18 09:38:20;;;;;;;10.32;6.78;;;6.70;79.50;;;;;;5455362;26;20537;-72
2024/04/18 09:41:14;;;;;;;10.80;6.03;;;6.90;77.20;;;;;;5487219;26;20001;-72
2024/04/18 09:44:02;;;;;;;9.35;6.38;;;7.20;77.80;;;;;;5477593;26;19998;-73
2024/04/18 09:46:31;;;;;;;10.70;7.50;;;7.50;77.20;;;;;;5485388;26;20439;-74
2024/04/18 09:48:57;;;;;;;9.43;6.90;;;7.50;73.60;;;;;;5473588;26;20339;-73
2024/04/18 09:51:23;;;;;;;21.67;11.85;;;7.80;72.40;;;;;;5489188;26;20038;-72
2024/04/18 09:53:49;;;;;;;10.32;7.70;;;8.20;73.20;;;;;;5477639;26;19998;-73
2024/04/18 09:56:17;;;;;;;10.38;6.80;;;8.20;72.60;;;;;;5489084;26;20718;-72
2024/04/18 09:58:44;;;;;;;7.70;5.72;;;7.90;69.90;;;;;;5489411;26;20006;-72
2024/04/18 10:01:11;;;;;;;8.38;6.10;;;7.80;69.80;;;;;;5487855;26;20122;-73
2024/04/18 10:03:37;;;;;;;10.77;6.95;;;7.50;68.40;;;;;;5489163;26;20002;-72
2024/04/18 10:06:15;;;;;;;8.65;6.30;;;7.30;69.60;;;;;;5482382;26;20017;-73
2024/04/18 10:08:45;;;;;;;8.68;6.55;;;7.40;71.00;;;;;;5471590;26;20006;-72
2024/04/18 10:11:12;;;;;;;8.73;6.38;;;7.30;72.10;;;;;;5462912;26;20002;-72
2024/04/18 10:13:38;;;;;;;9.57;6.28;;;7.20;73.60;;;;;;5489174;26;20002;-72
2024/04/18 10:16:12;;;;;;;6.82;5.50;;;7.30;73.80;;;;;;5481264;26;20134;-72
2024/04/18 10:18:39;;;;;;;7.50;5.30;;;7.30;71.80;;;;;;5488073;26;20016;-72
2024/04/18 10:21:14;;;;;;;7.75;5.50;;;7.60;71.40;;;;;;5488419;26;20021;-72
2024/04/18 10:23:50;;;;;;;8.73;5.60;;;7.70;69.80;;;;;;5487965;26;20443;-72
2024/04/18 10:26:17;;;;;;;7.53;5.93;;;7.80;70.30;;;;;;5487714;26;20002;-73
2024/04/18 10:28:44;;;;;;;7.60;5.25;;;7.60;70.10;;;;;;5487888;26;20073;-72
2024/04/18 10:31:11;;;;;;;8.80;5.95;;;7.30;72.10;;;;;;5489532;26;19998;-73
2024/04/18 10:33:38;;;;;;;8.57;6.22;;;7.10;74.00;;;;;;5477891;26;20013;-72
2024/04/18 10:36:16;;;;;;;8.13;6.22;;;6.90;74.50;;;;;;5477582;26;20082;-73
2024/04/18 10:38:47;;;;;;;7.93;6.03;;;6.70;75.10;;;;;;5488775;26;20006;-72
2024/04/18 10:41:14;;;;;;;6.45;5.85;;;6.50;74.50;;;;;;5474210;26;20003;-72
2024/04/18 10:43:40;;;;;;;5.40;4.85;;;6.60;73.90;;;;;;5487861;26;20071;-72
2024/04/18 10:46:07;;;;;;;6.75;5.43;;;6.60;73.20;;;;;;5456731;26;20006;-72
2024/04/18 10:48:36;;;;;;;7.20;4.72;;;6.60;71.80;;;;;;5486808;26;20034;-72
2024/04/18 10:51:03;;;;;;;4.50;4.10;;;6.80;71.80;;;;;;5456356;26;20395;-73
2024/04/18 10:53:29;;;;;;;4.72;3.92;;;7.10;70.10;;;;;;5486771;26;20023;-72
2024/04/18 10:55:55;;;;;;;5.70;4.57;;;7.20;66.70;;;;;;5487194;26;19998;-72
2024/04/18 10:58:21;;;;;;;5.63;4.97;;;7.40;68.40;;;;;;5488690;26;20005;-72
2024/04/18 11:00:47;;;;;;;5.43;4.20;;;7.50;66.40;;;;;;5487092;26;20016;-72
2024/04/18 11:03:13;;;;;;;7.00;4.57;;;7.40;66.90;;;;;;5487062;26;19998;-72
2024/04/18 11:05:43;;;;;;;6.22;5.30;;;7.40;67.60;;;;;;5486469;26;20018;-72
2024/04/18 11:08:09;;;;;;;7.25;5.80;;;7.30;68.10;;;;;;5464400;26;20013;-72
2024/04/18 11:10:38;;;;;;;10.80;7.05;;;7.40;69.10;;;;;;5487680;26;20037;-71
2024/04/18 11:13:04;;;;;;;8.50;6.35;;;7.20;69.50;;;;;;5488634;26;20547;-73
2024/04/18 11:15:31;;;;;;;6.80;5.18;;;7.10;71.50;;;;;;5456083;26;20010;-72
2024/04/18 11:18:01;;;;;;;3.70;3.33;;;7.00;71.80;;;;;;5488154;26;20300;-72
2024/04/18 11:20:26;;;;;;;7.25;3.40;;;6.80;68.00;;;;;;5455202;26;20002;-72
2024/04/18 11:22:53;;;;;;;3.45;3.15;;;6.90;68.10;;;;;;5487207;26;20013;-71
2024/04/18 11:25:19;;;;;;;7.07;3.97;;;7.10;68.30;;;;;;5474027;26;19994;-72
2024/04/18 11:27:45;;;;;;;4.32;3.47;;;7.10;68.40;;;;;;5455581;26;20002;-72
2024/04/18 11:30:20;;;;;;;3.72;3.17;;;7.10;68.50;;;;;;5472081;26;20067;-72
2024/04/18 11:32:58;;;;;;;3.75;3.33;;;6.90;67.80;;;;;;5486135;26;20016;-73
2024/04/18 11:35:25;;;;;;;4.07;3.72;;;7.20;67.90;;;;;;5472024;26;20451;-72
2024/04/18 11:37:51;;;;;;;6.80;3.55;;;7.10;67.50;;;;;;5472673;26;20013;-73
2024/04/18 11:40:16;;;;;;;5.15;4.13;;;7.30;68.40;;;;;;5487570;26;20014;-73
2024/04/18 11:42:42;;;;;;;5.75;4.05;;;7.20;68.40;;;;;;5470021;26;20017;-73
2024/04/18 11:45:09;;;;;;;4.60;4.03;;;7.10;67.50;;;;;;5483788;26;19998;-71
2024/04/18 11:47:36;;;;;;;5.18;4.22;;;7.20;69.30;;;;;;5434516;26;20011;-72
2024/04/18 11:50:03;;;;;;;5.78;4.28;;;7.00;70.40;;;;;;5455984;26;19998;-73
2024/04/18 11:52:29;;;;;;;5.78;4.25;;;7.00;70.30;;;;;;5462060;26;20030;-73
2024/04/18 11:54:55;;;;;;;5.43;4.40;;;7.00;69.90;;;;;;5473855;26;21724;-71
2024/04/18 11:57:20;;;;;;;4.65;3.60;;;7.10;69.80;;;;;;5451834;26;20484;-71
2024/04/18 11:59:46;;;;;;;6.13;4.00;;;7.20;69.20;;;;;;5464863;26;20002;-72
2024/04/18 12:02:11;;;;;;;10.68;4.63;;;7.30;68.80;;;;;;5489845;26;20017;-71
2024/04/18 12:04:37;;;;;;;5.57;4.22;;;7.40;67.70;;;;;;5484443;26;20020;-70
2024/04/18 12:07:03;;;;;;;5.55;4.43;;;7.50;66.90;;;;;;5472473;26;19998;-72
2024/04/18 12:09:30;;;;;;;9.65;5.45;;;7.60;67.50;;;;;;5470294;26;20439;-72
2024/04/18 12:11:56;;;;;;;4.22;3.67;;;7.60;67.60;;;;;;5488186;26;20012;-73
2024/04/18 12:14:22;;;;;;;8.88;6.13;;;7.60;65.90;;;;;;5472438;26;20002;-73
2024/04/18 12:16:47;;;;;;;5.40;4.65;;;7.60;65.90;;;;;;5474279;26;20014;-73
2024/04/18 12:19:13;;;;;;;3.63;3.33;;;7.70;66.10;;;;;;5487935;26;20078;-72
2024/04/18 12:21:38;;;;;;;8.35;7.05;;;7.60;67.60;;;;;;5486734;26;20010;-71
2024/04/18 12:24:04;;;;;;;4.55;3.47;;;7.80;67.90;;;;;;5477411;26;20017;-71
2024/04/18 12:26:30;;;;;;;5.47;4.10;;;7.80;66.60;;;;;;5489575;26;20388;-71
2024/04/18 12:28:55;;;;;;;5.72;3.88;;;8.10;67.70;;;;;;5488931;26;20006;-71
2024/04/18 12:31:21;;;;;;;4.70;4.25;;;8.20;66.20;;;;;;5473786;26;20034;-70
2024/04/18 12:33:47;;;;;;;3.65;3.33;;;8.20;65.80;;;;;;5473327;26;20003;-71
2024/04/18 12:36:13;;;;;;;4.35;3.50;;;8.10;65.90;;;;;;5490437;26;20006;-71
2024/04/18 12:38:39;;;;;;;5.82;3.60;;;7.80;65.10;;;;;;5472983;26;20425;-71
2024/04/18 12:41:05;;;;;;;5.25;4.10;;;7.70;66.80;;;;;;5488507;26;20018;-72
2024/04/18 12:43:31;;;;;;;5.95;4.32;;;7.60;67.20;;;;;;5489571;26;20001;-70